createdAt,value
2018-03-25T00:01:11.394Z,14.80
2018-03-25T00:03:39.366Z,14.80
2018-03-25T00:06:07.301Z,14.80
2018-03-25T00:08:35.295Z,14.80
2018-03-25T00:11:03.238Z,14.80
2018-03-25T00:13:30.409Z,14.80
2018-03-25T00:15:57.577Z,14.80
2018-03-25T00:18:25.516Z,14.70
2018-03-25T00:20:52.692Z,14.80
2018-03-25T00:23:20.674Z,14.70
2018-03-25T00:25:48.614Z,14.70
2018-03-25T00:28:15.778Z,14.60
2018-03-25T00:30:43.722Z,14.60
2018-03-25T00:33:11.739Z,14.60
2018-03-25T00:35:38.906Z,14.60
2018-03-25T00:38:06.082Z,14.60
2018-03-25T00:40:34.233Z,14.60
2018-03-25T00:43:01.400Z,14.60
2018-03-25T00:45:28.569Z,14.60
2018-03-25T00:47:55.738Z,14.60
2018-03-25T00:50:23.218Z,14.60
2018-03-25T00:52:51.158Z,14.60
2018-03-25T00:55:18.341Z,14.60
2018-03-25T00:57:46.274Z,14.60
2018-03-25T01:00:13.450Z,14.60
2018-03-25T01:02:42.322Z,14.60
2018-03-25T01:05:10.430Z,14.70
2018-03-25T01:07:39.352Z,14.60
2018-03-25T01:10:06.533Z,14.70
2018-03-25T01:12:34.614Z,14.60
2018-03-25T01:15:02.690Z,14.60
2018-03-25T01:17:29.863Z,14.60
2018-03-25T01:19:57.804Z,14.60
2018-03-25T01:22:24.978Z,14.60
2018-03-25T01:24:52.925Z,14.70
2018-03-25T01:27:20.098Z,14.70
2018-03-25T01:29:48.045Z,14.90
2018-03-25T01:32:15.218Z,14.90
2018-03-25T01:34:43.161Z,15.00
2018-03-25T01:37:10.331Z,15.00
2018-03-25T01:39:37.512Z,14.90
2018-03-25T01:42:04.687Z,14.90
2018-03-25T01:44:31.857Z,14.90
2018-03-25T01:46:59.036Z,14.90
2018-03-25T01:49:26.202Z,14.90
2018-03-25T01:51:54.144Z,14.80
2018-03-25T01:54:21.318Z,14.80
2018-03-25T01:56:49.258Z,14.70
2018-03-25T01:59:16.426Z,14.80
2018-03-25T02:01:43.643Z,14.70
2018-03-25T02:04:10.821Z,14.70
2018-03-25T02:06:37.990Z,14.70
2018-03-25T02:09:05.970Z,14.70
2018-03-25T02:11:33.916Z,14.70
2018-03-25T02:14:01.086Z,14.70
2018-03-25T02:16:29.027Z,14.60
2018-03-25T02:18:56.192Z,14.60
2018-03-25T02:21:23.365Z,14.60
2018-03-25T02:23:51.297Z,14.60
2018-03-25T02:26:18.499Z,14.60
2018-03-25T02:28:46.439Z,14.60
2018-03-25T02:31:13.607Z,14.60
2018-03-25T02:33:41.559Z,14.50
2018-03-25T02:36:08.730Z,14.50
2018-03-25T02:38:36.667Z,14.50
2018-03-25T02:41:03.846Z,14.50
2018-03-25T02:43:31.787Z,14.50
2018-03-25T02:45:59.723Z,14.50
2018-03-25T02:48:26.906Z,14.50
2018-03-25T02:50:54.080Z,14.50
2018-03-25T02:53:22.061Z,14.50
2018-03-25T02:55:49.999Z,14.50
2018-03-25T02:58:17.178Z,14.50
2018-03-25T03:00:45.119Z,14.50
2018-03-25T03:03:12.296Z,14.50
2018-03-25T03:05:40.243Z,14.50
2018-03-25T03:08:07.419Z,14.50
2018-03-25T03:10:35.363Z,14.60
2018-03-25T03:13:02.579Z,14.60
2018-03-25T03:15:29.751Z,14.50
2018-03-25T03:17:56.924Z,14.60
2018-03-25T03:20:24.095Z,14.50
2018-03-25T03:22:52.044Z,14.60
2018-03-25T03:25:19.217Z,14.60
2018-03-25T03:27:47.158Z,14.60
2018-03-25T03:30:14.331Z,14.60
2018-03-25T03:32:41.501Z,14.60
2018-03-25T03:35:09.439Z,14.60
2018-03-25T03:37:36.657Z,14.60
2018-03-25T03:40:03.867Z,14.70
2018-03-25T03:42:31.811Z,14.90
2018-03-25T03:44:58.987Z,14.90
2018-03-25T03:47:26.926Z,14.90
2018-03-25T03:49:54.094Z,14.90
2018-03-25T03:52:22.050Z,14.80
2018-03-25T03:54:49.225Z,14.80
2018-03-25T03:57:17.171Z,14.80
2018-03-25T03:59:44.388Z,14.80
2018-03-25T04:02:11.563Z,14.80
2018-03-25T04:04:38.734Z,14.80
2018-03-25T04:07:05.906Z,14.80
2018-03-25T04:09:33.847Z,14.80
2018-03-25T04:12:01.014Z,14.80
2018-03-25T04:14:28.974Z,14.80
2018-03-25T04:16:56.142Z,14.80
2018-03-25T04:19:24.102Z,14.80
2018-03-25T04:21:51.314Z,14.80
2018-03-25T04:24:18.484Z,14.70
2018-03-25T04:26:45.661Z,14.70
2018-03-25T04:29:12.834Z,14.70
2018-03-25T04:31:40.810Z,14.70
2018-03-25T04:34:08.754Z,14.70
2018-03-25T04:36:35.934Z,14.70
2018-03-25T04:39:03.105Z,14.70
2018-03-25T04:41:31.173Z,14.70
2018-03-25T04:43:58.348Z,14.70
2018-03-25T04:46:25.523Z,14.70
2018-03-25T04:48:52.693Z,14.70
2018-03-25T04:51:20.638Z,14.70
2018-03-25T04:53:47.814Z,14.70
2018-03-25T04:56:15.758Z,14.60
2018-03-25T04:58:42.920Z,14.60
2018-03-25T05:01:10.091Z,14.60
2018-03-25T05:03:38.031Z,14.70
2018-03-25T05:06:05.202Z,14.70
2018-03-25T05:08:32.374Z,14.70
2018-03-25T05:11:00.346Z,14.60
2018-03-25T05:13:28.277Z,14.60
2018-03-25T05:15:55.450Z,14.60
2018-03-25T05:18:23.390Z,14.60
2018-03-25T05:20:51.331Z,14.60
2018-03-25T05:23:18.503Z,14.60
2018-03-25T05:25:45.679Z,14.60
2018-03-25T05:28:12.850Z,14.60
2018-03-25T05:30:40.787Z,14.50
2018-03-25T05:33:07.998Z,14.50
2018-03-25T05:35:35.206Z,14.50
2018-03-25T05:38:02.378Z,14.60
2018-03-25T05:40:30.317Z,14.50
2018-03-25T05:42:57.487Z,14.50
2018-03-25T05:45:24.663Z,14.50
2018-03-25T05:47:51.837Z,14.50
2018-03-25T05:50:19.015Z,14.60
2018-03-25T05:52:46.190Z,14.70
2018-03-25T05:55:13.359Z,14.80
2018-03-25T05:57:41.308Z,14.80
2018-03-25T06:00:08.485Z,14.80
2018-03-25T06:02:36.423Z,14.70
2018-03-25T06:05:03.598Z,14.70
2018-03-25T06:07:31.538Z,14.80
2018-03-25T06:09:58.707Z,14.70
2018-03-25T06:12:25.881Z,14.80
2018-03-25T06:14:53.817Z,14.80
2018-03-25T06:17:20.986Z,14.70
2018-03-25T06:19:48.926Z,14.80
2018-03-25T06:22:16.115Z,14.80
2018-03-25T06:24:44.053Z,14.80
2018-03-25T06:27:11.223Z,14.70
2018-03-25T06:29:39.171Z,14.70
2018-03-25T06:32:06.338Z,14.70
2018-03-25T06:34:33.511Z,14.70
2018-03-25T06:37:01.449Z,14.70
2018-03-25T06:39:28.624Z,14.70
2018-03-25T06:41:56.566Z,14.70
2018-03-25T06:44:23.749Z,14.70
2018-03-25T06:46:50.986Z,14.70
2018-03-25T06:49:18.238Z,14.70
2018-03-25T06:51:45.451Z,14.70
2018-03-25T06:54:12.684Z,14.70
2018-03-25T06:56:39.874Z,14.70
2018-03-25T06:59:07.046Z,14.70
2018-03-25T07:01:34.222Z,14.70
2018-03-25T07:04:02.162Z,14.70
2018-03-25T07:06:29.338Z,14.70
2018-03-25T07:08:57.285Z,14.70
2018-03-25T07:11:24.452Z,14.70
2018-03-25T07:13:52.420Z,14.70
2018-03-25T07:16:20.357Z,14.60
2018-03-25T07:18:47.530Z,14.60
2018-03-25T07:21:14.702Z,14.60
2018-03-25T07:23:42.646Z,14.80
2018-03-25T07:26:09.819Z,14.80
2018-03-25T07:28:37.762Z,14.80
2018-03-25T07:31:04.934Z,14.80
2018-03-25T07:33:32.873Z,14.80
2018-03-25T07:36:00.047Z,14.80
2018-03-25T07:38:27.263Z,14.80
2018-03-25T07:40:54.448Z,14.80
2018-03-25T07:43:21.653Z,14.80
2018-03-25T07:45:48.825Z,14.80
2018-03-25T07:48:16.036Z,14.80
2018-03-25T07:50:43.208Z,14.80
2018-03-25T07:53:10.382Z,14.70
2018-03-25T07:55:37.639Z,14.80
2018-03-25T07:58:04.815Z,14.80
2018-03-25T08:00:31.988Z,14.80
2018-03-25T08:03:10.898Z,14.80
2018-03-25T08:05:38.851Z,14.70
2018-03-25T08:10:53.089Z,14.80
2018-03-25T08:13:20.263Z,14.80
2018-03-25T08:15:48.242Z,14.80
2018-03-25T08:18:15.447Z,14.80
2018-03-25T08:20:43.435Z,14.80
2018-03-25T08:23:10.618Z,14.80
2018-03-25T08:25:38.550Z,14.80
2018-03-25T08:28:05.718Z,14.80
2018-03-25T08:30:32.946Z,14.80
2018-03-25T08:33:00.119Z,14.80
2018-03-25T08:35:27.289Z,14.80
2018-03-25T08:37:55.232Z,14.80
2018-03-25T08:40:22.402Z,14.80
2018-03-25T08:42:50.377Z,14.80
2018-03-25T08:45:18.313Z,14.90
2018-03-25T08:47:45.529Z,14.90
2018-03-25T08:50:12.702Z,15.00
2018-03-25T08:52:39.918Z,15.20
2018-03-25T08:55:07.857Z,15.20
2018-03-25T08:57:35.039Z,15.20
2018-03-25T09:00:02.973Z,15.20
2018-03-25T09:02:30.151Z,15.20
2018-03-25T09:04:58.132Z,15.20
2018-03-25T09:07:25.314Z,15.10
2018-03-25T09:09:52.522Z,15.20
2018-03-25T09:12:20.463Z,15.10
2018-03-25T09:14:47.669Z,15.10
2018-03-25T09:17:14.837Z,15.10
2018-03-25T09:19:42.155Z,15.10
2018-03-25T09:22:09.379Z,15.10
2018-03-25T09:24:36.625Z,15.10
2018-03-25T09:27:03.802Z,15.10
2018-03-25T09:29:31.775Z,15.00
2018-03-25T09:31:59.746Z,15.00
2018-03-25T09:34:26.994Z,15.00
2018-03-25T09:36:54.989Z,15.00
2018-03-25T09:39:22.154Z,15.00
2018-03-25T09:41:49.407Z,15.00
2018-03-25T09:44:16.580Z,15.00
2018-03-25T09:46:43.797Z,15.00
2018-03-25T09:49:11.017Z,15.00
2018-03-25T09:51:38.238Z,15.00
2018-03-25T09:54:05.469Z,15.00
2018-03-25T09:56:32.685Z,15.00
2018-03-25T09:59:00.623Z,15.00
2018-03-25T10:01:38.458Z,15.00
2018-03-25T10:04:06.416Z,14.90
2018-03-25T10:06:33.616Z,14.90
2018-03-25T10:09:00.783Z,14.90
2018-03-25T10:11:27.972Z,15.00
2018-03-25T10:13:55.954Z,15.20
2018-03-25T10:16:23.893Z,15.30
2018-03-25T10:18:51.076Z,15.20
2018-03-25T10:21:19.019Z,15.20
2018-03-25T10:23:46.190Z,15.20
2018-03-25T10:26:13.366Z,15.20
2018-03-25T10:28:41.302Z,15.20
2018-03-25T10:31:08.470Z,15.20
2018-03-25T10:33:36.411Z,15.10
2018-03-25T10:36:03.579Z,15.20
2018-03-25T10:38:30.754Z,15.20
2018-03-25T10:40:58.692Z,14.60
2018-03-25T10:43:25.858Z,14.60
2018-03-25T10:45:53.066Z,14.10
2018-03-25T10:48:20.282Z,14.00
2018-03-25T10:50:47.453Z,14.10
2018-03-25T10:53:14.655Z,14.00
2018-03-25T10:55:41.822Z,14.00
2018-03-25T10:58:09.807Z,14.30
2018-03-25T11:00:37.754Z,14.20
2018-03-25T11:03:04.922Z,14.20
2018-03-25T11:05:32.900Z,14.50
2018-03-25T11:08:00.118Z,14.40
2018-03-25T11:10:27.292Z,14.50
2018-03-25T11:12:55.228Z,14.30
2018-03-25T11:15:22.398Z,14.30
2018-03-25T11:17:49.566Z,14.40
2018-03-25T11:20:17.501Z,14.70
2018-03-25T11:22:44.674Z,14.70
2018-03-25T11:25:11.891Z,14.80
2018-03-25T11:27:39.069Z,14.80
2018-03-25T11:30:06.238Z,14.80
2018-03-25T11:32:34.178Z,15.00
2018-03-25T11:35:01.390Z,15.00
2018-03-25T11:37:28.563Z,15.10
2018-03-25T11:39:55.767Z,15.10
2018-03-25T11:42:24.030Z,15.00
2018-03-25T11:44:51.293Z,15.10
2018-03-25T11:47:19.235Z,15.10
2018-03-25T11:49:46.415Z,15.10
2018-03-25T11:52:14.366Z,15.20
2018-03-25T11:54:42.331Z,15.20
2018-03-25T11:57:12.049Z,15.20
2018-03-25T11:59:40.159Z,15.00
2018-03-25T12:02:10.064Z,15.00
2018-03-25T12:04:37.278Z,15.10
2018-03-25T12:07:05.216Z,15.20
2018-03-25T12:09:32.391Z,15.20
2018-03-25T12:11:59.807Z,15.30
2018-03-25T12:14:26.975Z,15.20
2018-03-25T12:16:54.157Z,15.20
2018-03-25T12:19:21.367Z,15.10
2018-03-25T12:21:48.533Z,15.10
2018-03-25T12:24:15.743Z,15.10
2018-03-25T12:26:43.684Z,15.20
2018-03-25T12:29:10.854Z,15.20
2018-03-25T12:31:38.094Z,15.40
2018-03-25T12:34:05.265Z,15.50
2018-03-25T12:36:32.499Z,15.50
2018-03-25T12:38:59.710Z,15.50
2018-03-25T12:41:26.882Z,15.50
2018-03-25T12:43:54.087Z,15.40
2018-03-25T12:46:22.379Z,15.40
2018-03-25T12:48:49.582Z,15.40
2018-03-25T12:51:16.754Z,15.30
2018-03-25T12:53:43.974Z,15.30
2018-03-25T12:56:11.150Z,15.30
2018-03-25T12:58:38.370Z,15.30
2018-03-25T13:01:05.538Z,15.30
2018-03-25T13:03:32.746Z,15.30
2018-03-25T13:05:59.951Z,15.30
2018-03-25T13:08:27.122Z,15.30
2018-03-25T13:10:54.331Z,15.30
2018-03-25T13:13:21.534Z,15.20
2018-03-25T13:15:49.513Z,15.20
2018-03-25T13:18:17.494Z,15.20
2018-03-25T13:20:44.740Z,15.20
2018-03-25T13:23:11.959Z,15.20
2018-03-25T13:25:39.171Z,15.20
2018-03-25T13:28:06.386Z,15.10
2018-03-25T13:30:34.333Z,15.10
2018-03-25T13:33:01.508Z,15.20
2018-03-25T13:35:29.459Z,15.40
2018-03-25T13:37:56.634Z,15.40
2018-03-25T13:40:24.570Z,15.50
2018-03-25T13:42:51.738Z,15.50
2018-03-25T13:45:18.910Z,15.50
2018-03-25T13:47:46.854Z,15.50
2018-03-25T13:50:14.022Z,15.50
2018-03-25T13:52:41.959Z,15.50
2018-03-25T13:55:09.127Z,15.50
2018-03-25T13:57:36.298Z,15.60
2018-03-25T14:00:04.237Z,15.50
2018-03-25T14:02:31.406Z,15.50
2018-03-25T14:04:58.581Z,15.40
2018-03-25T14:07:26.518Z,15.30
2018-03-25T14:09:53.699Z,15.20
2018-03-25T14:12:20.874Z,15.20
2018-03-25T14:14:48.039Z,15.20
2018-03-25T14:17:15.210Z,15.20
2018-03-25T14:19:42.379Z,15.20
2018-03-25T14:22:09.553Z,15.20
2018-03-25T14:24:37.495Z,15.20
2018-03-25T14:27:04.671Z,15.20
2018-03-25T14:29:32.605Z,15.20
2018-03-25T14:31:59.781Z,15.20
2018-03-25T14:34:27.718Z,15.20
2018-03-25T14:36:55.662Z,15.20
2018-03-25T14:39:22.830Z,15.20
2018-03-25T14:41:49.998Z,15.30
2018-03-25T14:44:17.162Z,15.30
2018-03-25T14:46:44.330Z,15.20
2018-03-25T14:49:13.045Z,15.30
2018-03-25T14:51:40.274Z,15.30
2018-03-25T14:54:08.206Z,15.40
2018-03-25T14:56:36.167Z,15.40
2018-03-25T14:59:03.353Z,15.40
2018-03-25T15:01:30.526Z,15.40
2018-03-25T15:03:58.466Z,15.30
2018-03-25T15:06:25.639Z,15.30
2018-03-25T15:08:53.615Z,15.40
2018-03-25T15:11:21.554Z,15.30
2018-03-25T15:13:48.754Z,15.30
2018-03-25T15:16:15.922Z,15.30
2018-03-25T15:18:43.126Z,15.40
2018-03-25T15:21:11.062Z,15.40
2018-03-25T15:23:38.279Z,15.40
2018-03-25T15:26:05.454Z,15.40
2018-03-25T15:28:32.666Z,15.40
2018-03-25T15:31:00.602Z,15.40
2018-03-25T15:33:27.774Z,15.40
2018-03-25T15:35:55.745Z,15.50
2018-03-25T15:38:23.681Z,15.60
2018-03-25T15:40:51.615Z,15.70
2018-03-25T15:43:18.794Z,15.70
2018-03-25T15:45:45.957Z,15.70
2018-03-25T15:48:13.122Z,15.70
2018-03-25T15:50:40.331Z,15.60
2018-03-25T15:53:07.504Z,15.60
2018-03-25T15:55:35.439Z,15.60
2018-03-25T15:58:02.617Z,15.60
2018-03-25T16:00:29.882Z,15.60
2018-03-25T16:02:57.862Z,15.60
2018-03-25T16:05:25.026Z,15.50
2018-03-25T16:07:52.199Z,15.50
2018-03-25T16:10:20.146Z,15.50
2018-03-25T16:12:47.365Z,15.50
2018-03-25T16:15:14.572Z,15.60
2018-03-25T16:17:42.511Z,15.50
2018-03-25T16:20:09.686Z,15.50
2018-03-25T16:22:37.659Z,15.50
2018-03-25T16:25:05.594Z,15.50
2018-03-25T16:27:32.806Z,15.50
2018-03-25T16:29:59.980Z,15.50
2018-03-25T16:32:27.189Z,15.50
2018-03-25T16:34:55.128Z,15.50
2018-03-25T16:37:22.330Z,15.50
2018-03-25T16:39:49.505Z,15.50
2018-03-25T16:42:16.722Z,15.50
2018-03-25T16:44:44.654Z,15.50
2018-03-25T16:47:11.826Z,15.50
2018-03-25T16:49:39.830Z,15.50
2018-03-25T16:52:07.003Z,15.50
2018-03-25T16:54:34.206Z,15.50
2018-03-25T16:57:02.182Z,15.50
2018-03-25T16:59:30.155Z,15.50
2018-03-25T17:01:59.002Z,15.50
2018-03-25T17:04:26.978Z,15.50
2018-03-25T17:06:54.146Z,15.40
2018-03-25T17:09:21.357Z,15.50
2018-03-25T17:11:48.627Z,15.40
2018-03-25T17:14:15.800Z,15.40
2018-03-25T17:16:43.017Z,15.40
2018-03-25T17:19:10.194Z,15.40
2018-03-25T17:21:37.362Z,15.40
2018-03-25T17:24:04.541Z,15.40
2018-03-25T17:26:31.711Z,15.40
2018-03-25T17:28:58.918Z,15.40
2018-03-25T17:31:26.101Z,15.40
2018-03-25T17:33:53.318Z,15.40
2018-03-25T17:36:20.489Z,15.50
2018-03-25T17:38:48.426Z,15.70
2018-03-25T17:41:15.637Z,15.60
2018-03-25T17:43:42.809Z,15.70
2018-03-25T17:46:09.978Z,15.70
2018-03-25T17:48:37.147Z,15.60
2018-03-25T17:51:04.322Z,15.40
2018-03-25T17:53:32.262Z,15.40
2018-03-25T17:55:59.433Z,15.40
2018-03-25T17:58:27.374Z,15.50
2018-03-25T18:00:59.331Z,15.50
2018-03-25T18:03:26.506Z,15.50
2018-03-25T18:05:53.680Z,15.50
2018-03-25T18:08:21.623Z,15.50
2018-03-25T18:10:48.795Z,15.40
2018-03-25T18:13:16.726Z,15.40
2018-03-25T18:15:43.899Z,15.40
2018-03-25T18:18:11.167Z,15.40
2018-03-25T18:20:39.110Z,15.40
2018-03-25T18:23:06.323Z,15.40
2018-03-25T18:25:33.494Z,15.40
2018-03-25T18:28:00.663Z,15.40
2018-03-25T18:30:27.834Z,15.50
2018-03-25T18:32:55.782Z,15.70
2018-03-25T18:35:22.951Z,15.70
2018-03-25T18:37:50.127Z,15.80
2018-03-25T18:40:18.174Z,15.80
2018-03-25T18:42:45.460Z,15.80
2018-03-25T18:45:12.718Z,15.70
2018-03-25T18:47:39.897Z,15.70
2018-03-25T18:50:07.066Z,15.70
2018-03-25T18:52:34.234Z,15.70
2018-03-25T18:55:01.401Z,15.60
2018-03-25T18:57:29.339Z,15.60
2018-03-25T18:59:56.542Z,15.60
2018-03-25T19:02:23.716Z,15.60
2018-03-25T19:04:50.927Z,15.60
2018-03-25T19:07:18.877Z,15.50
2018-03-25T19:09:46.046Z,15.50
2018-03-25T19:12:13.986Z,15.50
2018-03-25T19:14:41.162Z,15.50
2018-03-25T19:17:08.409Z,15.50
2018-03-25T19:19:35.575Z,15.40
2018-03-25T19:22:03.552Z,15.50
2018-03-25T19:24:31.573Z,15.50
2018-03-25T19:26:58.853Z,15.40
2018-03-25T19:29:26.024Z,15.40
2018-03-25T19:31:53.963Z,15.40
2018-03-25T19:34:21.138Z,15.40
2018-03-25T19:36:49.116Z,15.40
2018-03-25T19:39:17.090Z,15.40
2018-03-25T19:41:45.059Z,15.40
2018-03-25T19:44:13.357Z,15.40
2018-03-25T19:46:40.635Z,15.40
2018-03-25T19:49:07.810Z,15.40
2018-03-25T19:51:35.018Z,15.40
2018-03-25T19:54:02.235Z,15.40
2018-03-25T19:56:30.225Z,15.40
2018-03-25T19:58:57.407Z,15.40
2018-03-25T20:01:24.587Z,15.40
2018-03-25T20:03:51.781Z,15.40
2018-03-25T20:06:18.950Z,15.40
2018-03-25T20:08:46.127Z,15.30
2018-03-25T20:11:13.347Z,15.40
2018-03-25T20:13:40.522Z,15.40
2018-03-25T20:16:07.726Z,15.50
2018-03-25T20:18:35.670Z,15.60
2018-03-25T20:21:03.651Z,15.70
2018-03-25T20:23:30.819Z,15.70
2018-03-25T20:25:58.875Z,15.60
2018-03-25T20:28:26.959Z,15.60
2018-03-25T20:30:54.930Z,15.60
2018-03-25T20:33:23.007Z,15.60
2018-03-25T20:35:50.952Z,15.60
2018-03-25T20:38:18.157Z,15.60
2018-03-25T20:40:45.355Z,15.50
2018-03-25T20:43:12.574Z,15.50
2018-03-25T20:45:39.856Z,15.50
2018-03-25T20:48:07.026Z,15.50
2018-03-25T20:50:34.378Z,15.50
2018-03-25T20:53:01.589Z,15.50
2018-03-25T20:55:28.874Z,15.50
2018-03-25T20:57:56.084Z,15.50
2018-03-25T21:00:23.298Z,15.50
2018-03-25T21:02:51.419Z,15.40
2018-03-25T21:05:18.576Z,15.40
2018-03-25T21:07:45.930Z,15.40
2018-03-25T21:10:13.146Z,15.40
2018-03-25T21:12:41.213Z,15.40
2018-03-25T21:15:09.166Z,15.40
2018-03-25T21:17:36.406Z,15.40
2018-03-25T21:20:03.697Z,15.40
2018-03-25T21:22:30.906Z,15.40
2018-03-25T21:24:58.227Z,15.40
2018-03-25T21:27:25.434Z,15.40
2018-03-25T21:29:52.705Z,15.40
2018-03-25T21:32:20.678Z,15.40
2018-03-25T21:34:48.623Z,15.40
2018-03-25T21:37:15.943Z,15.40
2018-03-25T21:39:43.134Z,15.40
2018-03-25T21:42:10.425Z,15.40
2018-03-25T21:44:37.635Z,15.40
2018-03-25T21:47:04.889Z,15.30
2018-03-25T21:49:32.054Z,15.40
2018-03-25T21:52:00.023Z,15.40
2018-03-25T21:54:27.966Z,15.30
2018-03-25T21:56:55.134Z,15.40
2018-03-25T21:59:22.446Z,15.30
2018-03-25T22:01:49.614Z,15.30
2018-03-25T22:04:16.782Z,15.30
2018-03-25T22:06:43.979Z,15.30
2018-03-25T22:09:11.156Z,15.30
2018-03-25T22:11:38.326Z,15.30
2018-03-25T22:14:06.279Z,15.40
2018-03-25T22:16:33.464Z,15.40
2018-03-25T22:19:00.670Z,15.50
2018-03-25T22:21:27.838Z,15.60
2018-03-25T22:23:55.006Z,15.60
2018-03-25T22:26:22.169Z,15.60
2018-03-25T22:28:49.334Z,15.60
2018-03-25T22:31:16.505Z,15.60
2018-03-25T22:33:44.445Z,15.50
2018-03-25T22:36:11.611Z,15.50
2018-03-25T22:38:39.583Z,15.50
2018-03-25T22:41:07.517Z,15.50
2018-03-25T22:43:34.692Z,15.50
2018-03-25T22:46:01.863Z,15.50
2018-03-25T22:48:29.796Z,15.50
2018-03-25T22:50:56.977Z,15.50
2018-03-25T22:53:24.947Z,15.40
2018-03-25T22:55:52.881Z,15.40
2018-03-25T22:58:20.094Z,15.40
2018-03-25T23:00:47.265Z,15.40
2018-03-25T23:03:14.430Z,15.40
2018-03-25T23:05:42.366Z,15.40
2018-03-25T23:08:09.530Z,15.40
2018-03-25T23:10:36.703Z,15.40
2018-03-25T23:13:03.890Z,15.40
2018-03-25T23:15:31.113Z,15.40
2018-03-25T23:17:58.414Z,15.40
2018-03-25T23:20:26.398Z,15.40
2018-03-25T23:22:53.569Z,15.40
2018-03-25T23:25:20.768Z,15.40
2018-03-25T23:27:47.978Z,15.40
2018-03-25T23:30:15.154Z,15.40
2018-03-25T23:32:43.866Z,15.30
2018-03-25T23:35:11.849Z,15.40
2018-03-25T23:37:39.818Z,15.40
2018-03-25T23:40:07.755Z,15.40
2018-03-25T23:42:34.966Z,15.40
2018-03-25T23:45:02.183Z,15.40
2018-03-25T23:47:30.120Z,15.30
2018-03-25T23:49:57.297Z,15.30
2018-03-25T23:52:24.517Z,15.30
2018-03-25T23:54:51.691Z,15.30
2018-03-25T23:57:18.854Z,15.30
2018-03-25T23:59:46.789Z,15.40
